Time;durP1;ratioP1;P1;durP2;ratioP2;P2;SDS_P1;SDS_P2;PMS_P1;PMS_P2;Temp;Humidity;BMP_temperature;BMP_pressure;BME280_temperature;BME280_humidity;BME280_pressure;Samples;Min_cycle;Max_cycle;Signal;HPM_P1;HPM_P2
2021/01/06 00:01:03;;;;;;;18.15;11.18;;;3.60;1.00;;;;;;4946125;28;20246;-71
2021/01/06 00:03:30;;;;;;;18.48;11.85;;;3.60;1.00;;;;;;4951034;28;20485;-72
2021/01/06 00:05:59;;;;;;;24.65;11.40;;;3.60;1.00;;;;;;4946566;28;20213;-72
2021/01/06 00:08:27;;;;;;;16.85;11.63;;;3.50;1.00;;;;;;4954458;28;20284;-75
2021/01/06 00:10:56;;;;;;;19.05;10.32;;;3.60;1.00;;;;;;4950291;28;20210;-72
2021/01/06 00:13:24;;;;;;;14.98;10.57;;;3.50;1.00;;;;;;4959666;28;20243;-72
2021/01/06 00:15:52;;;;;;;17.65;11.55;;;3.50;1.00;;;;;;4959657;28;20223;-72
2021/01/06 00:18:20;;;;;;;17.75;11.88;;;3.50;1.00;;;;;;4948607;28;20219;-72
2021/01/06 00:20:49;;;;;;;17.02;11.38;;;3.50;1.00;;;;;;4943723;28;20945;-73
2021/01/06 00:23:17;;;;;;;20.92;11.68;;;3.50;1.00;;;;;;4966542;28;20233;-72
2021/01/06 00:25:44;;;;;;;17.90;11.25;;;3.60;1.00;;;;;;4945354;28;20766;-74
2021/01/06 00:28:14;;;;;;;24.77;11.55;;;3.60;1.00;;;;;;4953384;28;20217;-72
2021/01/06 00:30:45;;;;;;;19.70;11.85;;;3.50;1.00;;;;;;4947117;28;20579;-73
2021/01/06 00:33:16;;;;;;;16.40;10.20;;;3.50;1.00;;;;;;4943135;28;20229;-72
2021/01/06 00:35:43;;;;;;;15.15;10.73;;;3.50;1.00;;;;;;4950051;28;20216;-74
2021/01/06 00:38:10;;;;;;;17.85;11.80;;;3.50;1.00;;;;;;4950417;28;20218;-71
2021/01/06 00:40:37;;;;;;;17.52;11.50;;;3.50;1.00;;;;;;4947285;28;20216;-72
2021/01/06 00:43:07;;;;;;;19.05;11.13;;;3.50;1.00;;;;;;4952925;28;20232;-73
2021/01/06 00:45:35;;;;;;;18.63;11.95;;;3.50;1.00;;;;;;4953363;28;20206;-72
2021/01/06 00:48:03;;;;;;;19.20;11.75;;;3.50;1.00;;;;;;4947911;28;20245;-72
2021/01/06 00:50:31;;;;;;;17.42;11.00;;;3.40;1.00;;;;;;4949520;28;20223;-72
2021/01/06 00:52:59;;;;;;;67.68;26.13;;;3.40;1.00;;;;;;4949883;28;20377;-72
2021/01/06 00:55:26;;;;;;;44.90;21.33;;;3.40;1.00;;;;;;4950807;28;20248;-74
2021/01/06 00:57:55;;;;;;;24.67;13.82;;;3.40;1.00;;;;;;4949911;28;20211;-73
2021/01/06 01:00:25;;;;;;;20.27;12.40;;;3.40;1.00;;;;;;4944373;28;20221;-74
2021/01/06 01:02:52;;;;;;;17.90;11.32;;;3.40;1.00;;;;;;4947453;28;20237;-72
2021/01/06 01:05:21;;;;;;;17.20;10.60;;;3.40;1.00;;;;;;4945566;28;20211;-73
2021/01/06 01:07:50;;;;;;;17.13;10.80;;;3.30;1.00;;;;;;4947889;28;20213;-71
2021/01/06 01:10:33;;;;;;;14.88;9.85;;;3.30;1.00;;;;;;4950248;28;20220;-72
2021/01/06 01:13:01;;;;;;;19.25;12.57;;;3.30;1.00;;;;;;4944803;28;20251;-71
2021/01/06 01:15:32;;;;;;;15.35;10.60;;;3.30;1.00;;;;;;4955178;28;20622;-72
2021/01/06 01:17:59;;;;;;;16.92;11.13;;;3.30;1.00;;;;;;4949246;28;20267;-72
2021/01/06 01:20:26;;;;;;;14.20;9.98;;;3.30;1.00;;;;;;4946674;28;20215;-71
2021/01/06 01:22:54;;;;;;;14.32;9.80;;;3.30;1.00;;;;;;4956104;28;20287;-71
2021/01/06 01:25:23;;;;;;;14.82;9.20;;;3.30;1.00;;;;;;4952740;28;20559;-72
2021/01/06 01:27:51;;;;;;;16.40;10.75;;;3.30;1.00;;;;;;4947033;28;20844;-71
2021/01/06 01:30:21;;;;;;;13.80;9.90;;;3.30;1.00;;;;;;4949528;28;20305;-72
2021/01/06 01:32:50;;;;;;;14.27;9.80;;;3.30;1.00;;;;;;4946764;28;20231;-71
2021/01/06 01:35:20;;;;;;;13.38;8.80;;;3.30;1.00;;;;;;4946890;28;20224;-72
2021/01/06 01:37:48;;;;;;;13.77;9.35;;;3.20;1.00;;;;;;4953613;28;20700;-72
2021/01/06 01:40:20;;;;;;;14.15;9.65;;;3.20;1.00;;;;;;4944598;28;20275;-72
2021/01/06 01:42:54;;;;;;;14.57;9.40;;;3.20;1.00;;;;;;4947743;28;20721;-73
2021/01/06 01:45:25;;;;;;;13.35;9.35;;;3.20;1.00;;;;;;4948669;28;20223;-72
2021/01/06 01:47:57;;;;;;;11.50;8.23;;;3.20;1.00;;;;;;4947243;28;20263;-73
2021/01/06 01:50:26;;;;;;;11.75;8.88;;;3.20;1.00;;;;;;4941896;28;20728;-71
2021/01/06 01:52:59;;;;;;;13.57;8.35;;;3.20;1.00;;;;;;4957695;28;20231;-71
2021/01/06 01:55:29;;;;;;;15.43;10.50;;;3.20;1.00;;;;;;4951224;28;20206;-72
2021/01/06 01:58:01;;;;;;;15.10;9.40;;;3.20;1.00;;;;;;4942788;28;20207;-71
2021/01/06 02:00:33;;;;;;;12.55;8.60;;;3.20;1.00;;;;;;4945920;28;20248;-74
2021/01/06 02:03:13;;;;;;;10.77;7.75;;;3.20;1.00;;;;;;4945721;28;20249;-71
2021/01/06 02:05:48;;;;;;;11.70;7.82;;;3.20;1.00;;;;;;4945598;28;20292;-71
2021/01/06 02:08:19;;;;;;;15.10;9.00;;;3.20;1.00;;;;;;4942316;28;20220;-72
2021/01/06 02:10:53;;;;;;;85.10;29.90;;;3.20;1.00;;;;;;4944801;28;20213;-71
2021/01/06 02:13:25;;;;;;;50.85;22.85;;;3.30;1.00;;;;;;4941826;28;20264;-72
2021/01/06 02:16:04;;;;;;;19.60;12.25;;;3.30;1.00;;;;;;4946022;28;20233;-72
2021/01/06 02:18:31;;;;;;;15.07;10.65;;;3.20;1.00;;;;;;4951398;28;20223;-72
2021/01/06 02:21:02;;;;;;;10.70;8.10;;;3.30;1.00;;;;;;4964732;28;20215;-74
2021/01/06 02:23:29;;;;;;;14.07;9.00;;;3.20;1.00;;;;;;4938372;28;20294;-72
2021/01/06 02:25:57;;;;;;;12.18;8.02;;;3.20;1.00;;;;;;4937715;28;20216;-72
2021/01/06 02:28:24;;;;;;;14.45;9.07;;;3.10;1.00;;;;;;4945474;28;20594;-72
2021/01/06 02:30:51;;;;;;;14.27;8.52;;;3.10;1.00;;;;;;4955141;28;20216;-73
2021/01/06 02:33:19;;;;;;;13.88;8.75;;;3.10;1.00;;;;;;4942639;28;20633;-75
2021/01/06 02:35:47;;;;;;;13.90;8.43;;;3.10;1.00;;;;;;4945888;28;20271;-73
2021/01/06 02:38:15;;;;;;;11.48;8.07;;;3.10;1.00;;;;;;4947487;28;20214;-73
2021/01/06 02:40:42;;;;;;;12.30;8.68;;;3.10;1.00;;;;;;4948906;28;20281;-73
2021/01/06 02:43:09;;;;;;;11.23;8.30;;;3.20;1.00;;;;;;4948860;28;20233;-73
2021/01/06 02:45:36;;;;;;;11.43;8.55;;;3.10;1.00;;;;;;4943887;28;20869;-73
2021/01/06 02:48:04;;;;;;;13.20;9.18;;;3.10;1.00;;;;;;4945995;28;20219;-72
2021/01/06 02:50:33;;;;;;;17.80;9.07;;;3.00;1.00;;;;;;4942358;28;20214;-73
2021/01/06 02:53:05;;;;;;;11.48;8.48;;;3.00;1.00;;;;;;4941890;28;20233;-74
2021/01/06 02:55:35;;;;;;;14.38;8.30;;;3.10;1.00;;;;;;4948661;28;20279;-73
2021/01/06 02:58:09;;;;;;;11.40;7.32;;;3.00;1.00;;;;;;4944315;28;20812;-75
2021/01/06 03:00:37;;;;;;;13.95;8.70;;;3.10;1.00;;;;;;4943307;28;20217;-72
2021/01/06 03:03:08;;;;;;;12.15;8.10;;;3.00;1.00;;;;;;4956074;28;20251;-74
2021/01/06 03:05:39;;;;;;;10.15;7.55;;;3.10;1.00;;;;;;4945222;28;20217;-74
2021/01/06 03:08:07;;;;;;;9.25;7.07;;;3.10;1.00;;;;;;4944861;28;20213;-73
2021/01/06 03:10:35;;;;;;;9.77;7.90;;;3.10;1.00;;;;;;4945916;28;20206;-73
2021/01/06 03:13:03;;;;;;;9.27;6.95;;;3.10;1.00;;;;;;4948691;28;20227;-73
2021/01/06 03:15:30;;;;;;;11.63;7.40;;;3.10;1.00;;;;;;4955419;28;20265;-74
2021/01/06 03:17:58;;;;;;;9.55;7.18;;;3.10;1.00;;;;;;4954152;28;20225;-72
2021/01/06 03:20:31;;;;;;;11.45;7.97;;;3.20;1.00;;;;;;4949095;28;20225;-71
2021/01/06 03:23:06;;;;;;;10.38;7.70;;;3.10;1.00;;;;;;4947709;28;20233;-74
2021/01/06 03:25:34;;;;;;;11.40;7.72;;;3.10;1.00;;;;;;4947052;28;20237;-72
2021/01/06 03:28:02;;;;;;;10.77;7.68;;;3.00;1.00;;;;;;4945247;28;20203;-72
2021/01/06 03:30:32;;;;;;;9.32;7.22;;;3.00;1.00;;;;;;4947013;28;20239;-72
2021/01/06 03:33:08;;;;;;;10.32;7.18;;;2.80;1.00;;;;;;4947957;28;20645;-72
2021/01/06 03:35:39;;;;;;;10.57;7.78;;;2.90;1.00;;;;;;4950312;28;20216;-73
2021/01/06 03:38:13;;;;;;;11.15;7.15;;;2.90;1.00;;;;;;4951571;28;20213;-71
2021/01/06 03:40:42;;;;;;;9.60;7.55;;;3.00;1.00;;;;;;4952721;28;20304;-72
2021/01/06 03:43:12;;;;;;;11.40;7.82;;;2.80;1.00;;;;;;4950349;28;20228;-72
2021/01/06 03:45:42;;;;;;;11.82;7.75;;;2.80;1.00;;;;;;4952465;28;20275;-73
2021/01/06 03:48:17;;;;;;;9.63;5.90;;;2.80;1.00;;;;;;4950419;28;20322;-73
2021/01/06 03:50:50;;;;;;;8.82;6.90;;;2.80;1.00;;;;;;4952571;28;20223;-71
2021/01/06 03:53:28;;;;;;;10.15;6.60;;;2.80;1.00;;;;;;4953869;28;20233;-73
2021/01/06 03:55:59;;;;;;;9.73;7.32;;;2.80;1.00;;;;;;4955095;28;20250;-73
2021/01/06 03:58:39;;;;;;;9.93;6.90;;;2.80;1.00;;;;;;4950791;28;20702;-73
2021/01/06 04:01:24;;;;;;;11.73;7.28;;;2.80;1.00;;;;;;4941663;28;20732;-73
2021/01/06 04:03:57;;;;;;;8.32;7.30;;;2.90;1.00;;;;;;4948693;28;20753;-72
2021/01/06 04:06:26;;;;;;;11.18;7.03;;;2.90;1.00;;;;;;4960405;28;20218;-72
2021/01/06 04:08:56;;;;;;;10.13;6.80;;;2.90;1.00;;;;;;4955715;28;20202;-72
2021/01/06 04:11:28;;;;;;;7.97;7.10;;;2.90;1.00;;;;;;4949812;28;20222;-72
2021/01/06 04:13:57;;;;;;;10.00;6.15;;;2.90;1.00;;;;;;4953499;28;20226;-73
2021/01/06 04:16:24;;;;;;;8.25;6.65;;;2.90;1.00;;;;;;4950187;28;20735;-74
2021/01/06 04:18:52;;;;;;;10.60;6.65;;;3.00;1.00;;;;;;4949444;28;20216;-74
2021/01/06 04:21:20;;;;;;;7.88;6.20;;;2.90;1.00;;;;;;4960315;28;20798;-73
2021/01/06 04:23:48;;;;;;;7.20;5.95;;;2.90;1.00;;;;;;4952462;28;20588;-73
2021/01/06 04:26:16;;;;;;;8.77;6.72;;;2.90;1.00;;;;;;4942021;28;20936;-73
2021/01/06 04:28:44;;;;;;;10.57;7.10;;;2.90;1.00;;;;;;4950165;28;20210;-73
2021/01/06 04:31:16;;;;;;;8.20;6.20;;;3.00;1.00;;;;;;4948689;28;20233;-73
2021/01/06 04:33:45;;;;;;;8.18;6.18;;;3.00;1.00;;;;;;4947221;28;20296;-72
2021/01/06 04:36:15;;;;;;;6.20;5.40;;;2.90;1.00;;;;;;4960115;28;20218;-73
2021/01/06 04:38:45;;;;;;;7.10;5.70;;;2.90;1.00;;;;;;4946959;28;20216;-72
2021/01/06 04:41:30;;;;;;;8.23;6.75;;;2.90;1.00;;;;;;4947172;28;20215;-73
2021/01/06 04:44:25;;;;;;;74.68;32.75;;;3.00;1.00;;;;;;4961705;28;20808;-73
2021/01/06 04:47:07;;;;;;;25.85;14.05;;;2.90;1.00;;;;;;4950212;28;20642;-73
2021/01/06 04:49:44;;;;;;;11.90;8.13;;;2.90;1.00;;;;;;4947166;28;20252;-73
2021/01/06 04:52:32;;;;;;;10.52;7.03;;;2.90;1.00;;;;;;4949834;28;20244;-71
2021/01/06 04:55:06;;;;;;;8.25;6.43;;;2.90;1.00;;;;;;4956447;28;20220;-72
2021/01/06 04:57:47;;;;;;;11.35;7.13;;;2.90;1.00;;;;;;4941969;28;20230;-72
2021/01/06 05:00:29;;;;;;;8.88;7.35;;;2.90;1.00;;;;;;4942891;28;20302;-74
2021/01/06 05:03:36;;;;;;;9.15;6.22;;;2.90;1.00;;;;;;4948132;28;20229;-72
2021/01/06 05:06:32;;;;;;;7.93;5.88;;;2.90;1.00;;;;;;4947119;28;20264;-72
2021/01/06 05:09:10;;;;;;;10.35;6.80;;;2.90;1.00;;;;;;4946616;28;20573;-71
2021/01/06 05:11:41;;;;;;;9.60;6.47;;;2.90;1.00;;;;;;4948323;28;20236;-73
2021/01/06 05:14:12;;;;;;;8.25;6.63;;;2.90;1.00;;;;;;4946058;28;20240;-72
2021/01/06 05:16:42;;;;;;;9.32;6.57;;;2.80;1.00;;;;;;4947687;28;20261;-72
2021/01/06 05:19:16;;;;;;;10.70;7.97;;;2.80;1.00;;;;;;4949364;28;20227;-72
2021/01/06 05:21:44;;;;;;;9.07;6.32;;;2.80;1.00;;;;;;4946843;28;20730;-72
2021/01/06 05:24:20;;;;;;;8.38;6.70;;;2.80;1.00;;;;;;4959576;28;20287;-73
2021/01/06 05:26:49;;;;;;;10.93;7.13;;;2.80;1.00;;;;;;4948386;28;20698;-73
2021/01/06 05:29:22;;;;;;;8.55;6.22;;;2.90;1.00;;;;;;4948699;28;20203;-74
2021/01/06 05:31:49;;;;;;;9.02;6.57;;;2.90;1.00;;;;;;4946746;28;20237;-74
2021/01/06 05:34:18;;;;;;;8.68;6.50;;;2.90;1.00;;;;;;4953652;28;20226;-73
2021/01/06 05:36:47;;;;;;;9.00;6.20;;;2.90;1.00;;;;;;4958221;28;20750;-73
2021/01/06 05:39:21;;;;;;;6.32;5.60;;;2.90;1.00;;;;;;4943291;28;20204;-72
2021/01/06 05:41:50;;;;;;;9.38;6.60;;;2.80;1.00;;;;;;4948222;28;20204;-72
2021/01/06 05:44:17;;;;;;;11.15;7.50;;;2.80;1.00;;;;;;4950954;28;20243;-72
2021/01/06 05:46:46;;;;;;;8.98;6.20;;;2.80;1.00;;;;;;4944112;28;20208;-72
2021/01/06 05:49:22;;;;;;;8.55;5.85;;;2.80;1.00;;;;;;4945902;28;20272;-70
2021/01/06 05:51:56;;;;;;;9.15;7.07;;;2.80;1.00;;;;;;4952350;28;20891;-72
2021/01/06 05:54:28;;;;;;;10.18;6.65;;;2.80;1.00;;;;;;4953334;28;20938;-73
2021/01/06 05:57:06;;;;;;;25.63;13.35;;;2.80;1.00;;;;;;4943118;28;20895;-73
2021/01/06 05:59:51;;;;;;;60.75;24.30;;;2.80;1.00;;;;;;4948704;28;20649;-73
2021/01/06 06:02:23;;;;;;;26.10;11.45;;;2.70;1.00;;;;;;4943729;28;20243;-73
2021/01/06 06:05:13;;;;;;;12.32;7.45;;;2.70;1.00;;;;;;4944461;28;20356;-73
2021/01/06 06:07:55;;;;;;;10.15;7.35;;;2.70;1.00;;;;;;4944169;28;20214;-73
2021/01/06 06:10:46;;;;;;;9.00;7.07;;;2.80;1.00;;;;;;4944674;28;20270;-72
2021/01/06 06:13:29;;;;;;;9.20;7.00;;;2.80;1.00;;;;;;4938263;28;20233;-70
2021/01/06 06:16:29;;;;;;;9.43;6.57;;;2.70;1.00;;;;;;4945750;28;20279;-72
2021/01/06 06:19:15;;;;;;;9.43;6.47;;;2.80;1.00;;;;;;4942235;28;20273;-71
2021/01/06 06:21:55;;;;;;;7.78;6.68;;;2.80;1.00;;;;;;4946961;28;20230;-72
2021/01/06 06:24:46;;;;;;;8.60;7.35;;;2.80;1.00;;;;;;4937484;28;20223;-72
2021/01/06 06:27:37;;;;;;;9.00;5.80;;;2.80;1.00;;;;;;4943622;28;20237;-71
2021/01/06 06:30:27;;;;;;;9.82;7.40;;;2.80;1.00;;;;;;4941426;28;20214;-72
2021/01/06 06:32:55;;;;;;;11.68;7.15;;;2.80;1.00;;;;;;4946465;28;20315;-71
2021/01/06 06:35:28;;;;;;;8.25;6.07;;;2.80;1.00;;;;;;4950413;28;20220;-70
2021/01/06 06:37:59;;;;;;;6.95;5.45;;;2.80;1.00;;;;;;4946902;28;20682;-71
2021/01/06 06:40:28;;;;;;;8.10;6.82;;;2.80;1.00;;;;;;4940079;28;20258;-72
2021/01/06 06:42:58;;;;;;;11.45;7.15;;;2.80;1.00;;;;;;4943539;28;20237;-72
2021/01/06 06:46:01;;;;;;;9.88;6.97;;;2.70;1.00;;;;;;4946943;28;20214;-72
2021/01/06 06:48:42;;;;;;;10.90;7.25;;;2.70;1.00;;;;;;4917192;28;20318;-71
2021/01/06 06:51:17;;;;;;;8.35;6.38;;;2.70;1.00;;;;;;4944702;28;20232;-73
2021/01/06 06:53:53;;;;;;;9.15;6.20;;;2.80;1.00;;;;;;4952950;28;22151;-72
2021/01/06 06:56:29;;;;;;;8.93;6.60;;;2.80;1.00;;;;;;4958549;28;20237;-72
2021/01/06 06:59:02;;;;;;;10.57;7.35;;;2.80;1.00;;;;;;4947561;28;20214;-72
2021/01/06 07:01:36;;;;;;;8.20;6.57;;;2.60;1.00;;;;;;4955418;28;20938;-72
2021/01/06 07:04:06;;;;;;;24.42;14.00;;;2.60;1.00;;;;;;4943193;28;20245;-72
2021/01/06 07:06:35;;;;;;;12.98;7.18;;;2.60;1.00;;;;;;4948952;28;20652;-72
2021/01/06 07:09:05;;;;;;;12.52;6.60;;;2.60;1.00;;;;;;4953945;28;20213;-71
2021/01/06 07:11:37;;;;;;;11.85;7.03;;;2.60;1.00;;;;;;4949459;28;20209;-72
2021/01/06 07:14:08;;;;;;;12.48;7.07;;;2.60;1.00;;;;;;4952112;28;20266;-71
2021/01/06 07:16:54;;;;;;;9.55;6.82;;;2.60;1.00;;;;;;4943123;28;20257;-72
2021/01/06 07:19:25;;;;;;;9.77;6.97;;;2.60;1.00;;;;;;4946904;28;20274;-72
2021/01/06 07:21:59;;;;;;;8.90;6.47;;;2.50;1.00;;;;;;4945964;28;20680;-72
2021/01/06 07:24:28;;;;;;;10.02;7.25;;;2.50;1.00;;;;;;4938043;28;20591;-73
2021/01/06 07:26:59;;;;;;;8.70;6.30;;;2.50;1.00;;;;;;4945147;28;20208;-72
2021/01/06 07:29:32;;;;;;;10.50;6.50;;;2.50;1.00;;;;;;4945719;28;20212;-73
2021/01/06 07:32:04;;;;;;;8.70;7.05;;;2.60;1.00;;;;;;4950920;28;20221;-72
2021/01/06 07:34:40;;;;;;;13.95;8.13;;;2.60;1.00;;;;;;4945883;28;20201;-72
2021/01/06 07:37:21;;;;;;;7.90;6.40;;;2.60;1.00;;;;;;4942051;28;20695;-72
2021/01/06 07:39:57;;;;;;;10.02;7.10;;;2.60;1.00;;;;;;4940930;28;20212;-71
2021/01/06 07:42:35;;;;;;;11.07;7.80;;;2.50;1.00;;;;;;4941979;28;20234;-71
2021/01/06 07:45:32;;;;;;;8.20;6.45;;;2.60;1.00;;;;;;4945644;28;20235;-70
2021/01/06 07:48:18;;;;;;;11.63;7.35;;;2.60;1.00;;;;;;4947161;28;20211;-72
2021/01/06 07:50:55;;;;;;;9.82;6.60;;;2.60;1.00;;;;;;4952425;28;20837;-71
2021/01/06 07:53:25;;;;;;;7.85;6.53;;;2.60;1.00;;;;;;4948518;28;20222;-71
2021/01/06 07:55:58;;;;;;;9.60;6.55;;;2.70;1.00;;;;;;4940265;28;20228;-71
2021/01/06 07:58:32;;;;;;;10.73;7.70;;;2.70;1.00;;;;;;4940088;28;20225;-70
2021/01/06 08:01:03;;;;;;;10.70;6.55;;;2.70;1.00;;;;;;4943481;28;20781;-70
2021/01/06 08:03:42;;;;;;;10.25;6.70;;;2.70;1.00;;;;;;4950321;28;20606;-70
2021/01/06 08:06:10;;;;;;;14.95;9.15;;;2.70;1.00;;;;;;4956506;28;20221;-71
2021/01/06 08:08:45;;;;;;;11.77;7.95;;;2.70;1.00;;;;;;4950907;28;20217;-68
2021/01/06 08:11:17;;;;;;;11.50;7.38;;;2.70;1.00;;;;;;4948910;28;20265;-70
2021/01/06 08:14:00;;;;;;;8.35;6.55;;;2.70;1.00;;;;;;4958160;28;20690;-71
2021/01/06 08:16:35;;;;;;;12.05;7.78;;;2.70;1.00;;;;;;4954388;28;20252;-72
2021/01/06 08:19:13;;;;;;;9.85;7.18;;;2.80;1.00;;;;;;4946447;28;20225;-71
2021/01/06 08:21:49;;;;;;;10.27;7.07;;;2.70;1.00;;;;;;4957855;28;20284;-71
2021/01/06 08:24:24;;;;;;;11.32;8.10;;;2.70;1.00;;;;;;4953761;28;20234;-71
2021/01/06 08:26:54;;;;;;;13.40;8.02;;;2.80;1.00;;;;;;4951565;28;20230;-71
2021/01/06 08:29:23;;;;;;;10.60;8.05;;;2.80;1.00;;;;;;4952220;28;20221;-71
2021/01/06 08:31:52;;;;;;;11.23;7.65;;;2.90;1.00;;;;;;4955419;28;20209;-70
2021/01/06 08:34:23;;;;;;;9.50;7.40;;;3.00;1.00;;;;;;4948302;28;20990;-72
2021/01/06 08:36:58;;;;;;;13.05;7.85;;;3.00;1.00;;;;;;4951390;28;20214;-71
2021/01/06 08:39:27;;;;;;;12.27;8.45;;;3.00;1.00;;;;;;4961413;28;20207;-70
2021/01/06 08:42:06;;;;;;;8.32;6.95;;;3.00;1.00;;;;;;4948617;28;20217;-70
2021/01/06 08:44:38;;;;;;;7.47;5.80;;;3.10;1.00;;;;;;4962038;28;20257;-71
2021/01/06 08:47:09;;;;;;;9.25;7.03;;;3.10;1.00;;;;;;4957307;28;20705;-71
2021/01/06 08:49:38;;;;;;;7.22;6.40;;;3.10;1.00;;;;;;4951775;28;20304;-71
2021/01/06 08:52:27;;;;;;;11.82;7.25;;;3.00;1.00;;;;;;4949278;28;20212;-70
2021/01/06 08:55:00;;;;;;;8.77;6.63;;;3.00;1.00;;;;;;4944747;28;20562;-71
2021/01/06 08:57:32;;;;;;;8.02;6.30;;;3.00;1.00;;;;;;4950372;28;20264;-71
2021/01/06 09:00:14;;;;;;;10.35;7.28;;;3.10;1.00;;;;;;4946904;28;20271;-72
2021/01/06 09:02:48;;;;;;;9.32;7.15;;;3.10;1.00;;;;;;4960678;28;20240;-72
2021/01/06 09:05:45;;;;;;;10.57;7.10;;;3.10;1.00;;;;;;4948817;28;20248;-71
2021/01/06 09:08:15;;;;;;;8.73;7.20;;;3.20;99.90;;;;;;4949433;28;20217;-71
2021/01/06 09:10:50;;;;;;;8.50;6.95;;;3.10;99.90;;;;;;4946217;28;20215;-71
2021/01/06 09:13:21;;;;;;;10.90;7.35;;;3.10;99.90;;;;;;4955518;28;20488;-71
2021/01/06 09:15:51;;;;;;;11.68;7.45;;;3.10;1.00;;;;;;4948026;28;20713;-74
2021/01/06 09:18:22;;;;;;;8.07;6.82;;;3.10;1.00;;;;;;4946200;28;20220;-72
2021/01/06 09:21:09;;;;;;;10.30;7.38;;;3.20;1.00;;;;;;4955334;28;20209;-71
2021/01/06 09:23:37;;;;;;;8.38;6.25;;;3.30;99.90;;;;;;4948768;28;20707;-71
2021/01/06 09:26:05;;;;;;;8.50;5.93;;;3.20;99.90;;;;;;4957068;28;20220;-71
2021/01/06 09:28:38;;;;;;;7.50;6.40;;;3.20;99.90;;;;;;4950023;28;20201;-70
2021/01/06 09:31:07;;;;;;;6.90;5.40;;;3.20;99.90;;;;;;4947243;28;20223;-72
2021/01/06 09:33:38;;;;;;;7.75;5.75;;;3.20;99.90;;;;;;4962678;28;20316;-71
2021/01/06 09:36:07;;;;;;;7.25;6.00;;;3.20;99.90;;;;;;4948100;28;20907;-71
2021/01/06 09:38:37;;;;;;;7.32;5.55;;;3.30;99.90;;;;;;4949054;28;20274;-70
2021/01/06 09:41:13;;;;;;;8.48;7.40;;;3.20;99.90;;;;;;4953846;28;20226;-71
2021/01/06 09:43:47;;;;;;;7.07;6.38;;;3.20;99.90;;;;;;4949068;28;20257;-71
2021/01/06 09:46:18;;;;;;;6.05;5.45;;;3.20;99.90;;;;;;4962734;28;20982;-71
2021/01/06 09:48:51;;;;;;;5.95;4.93;;;3.30;99.90;;;;;;4972827;28;20260;-70
2021/01/06 09:51:20;;;;;;;7.45;6.28;;;3.20;99.90;;;;;;4950836;28;20246;-71
2021/01/06 09:53:50;;;;;;;6.28;5.72;;;3.20;99.90;;;;;;4960796;28;20235;-71
2021/01/06 09:56:34;;;;;;;5.72;5.20;;;3.30;99.90;;;;;;4950143;28;20221;-70
2021/01/06 09:59:04;;;;;;;5.10;4.60;;;3.30;99.90;;;;;;4966538;28;20714;-70
2021/01/06 10:01:39;;;;;;;6.00;5.40;;;3.30;99.90;;;;;;4949913;28;20219;-71
2021/01/06 10:04:24;;;;;;;5.15;4.55;;;3.30;99.90;;;;;;4960697;28;20597;-70
2021/01/06 10:06:59;;;;;;;6.72;5.68;;;3.40;99.90;;;;;;4950354;28;20217;-70
2021/01/06 10:09:30;;;;;;;6.35;5.50;;;3.40;99.90;;;;;;4956693;28;20969;-70
2021/01/06 10:12:19;;;;;;;7.38;5.60;;;3.40;63.80;;;;;;4946984;28;20229;-71
2021/01/06 10:15:10;;;;;;;6.70;5.75;;;3.40;99.90;;;;;;4955544;28;20765;-70
2021/01/06 10:17:41;;;;;;;5.80;4.85;;;3.40;65.40;;;;;;4951644;28;20210;-71
2021/01/06 10:20:20;;;;;;;7.95;6.47;;;3.40;99.90;;;;;;4955362;28;20940;-71
2021/01/06 10:22:52;;;;;;;6.93;5.07;;;3.40;99.90;;;;;;4946633;28;20288;-70
2021/01/06 10:25:39;;;;;;;6.35;5.10;;;3.40;99.90;;;;;;4950718;28;20257;-71
2021/01/06 10:28:12;;;;;;;7.28;4.90;;;3.40;99.90;;;;;;4954461;28;20338;-70
2021/01/06 10:30:40;;;;;;;6.97;5.47;;;3.40;99.90;;;;;;4944035;28;20307;-71
2021/01/06 10:33:19;;;;;;;6.93;5.50;;;3.40;99.90;;;;;;4948029;28;20684;-71
2021/01/06 10:36:07;;;;;;;6.18;5.55;;;3.50;99.90;;;;;;4951180;28;20211;-70
2021/01/06 10:38:47;;;;;;;6.70;5.35;;;3.40;99.90;;;;;;4949125;28;20221;-70
2021/01/06 10:41:25;;;;;;;7.88;5.95;;;3.40;99.90;;;;;;4958719;28;20206;-71
2021/01/06 10:43:53;;;;;;;6.35;5.50;;;3.50;99.90;;;;;;4946916;28;20330;-71
2021/01/06 10:46:37;;;;;;;8.80;5.45;;;3.40;99.90;;;;;;4945573;28;20217;-71
2021/01/06 10:49:06;;;;;;;6.72;5.45;;;3.40;99.90;;;;;;4950623;28;20213;-70
2021/01/06 10:52:01;;;;;;;5.78;5.20;;;3.30;99.90;;;;;;4955983;28;20214;-70
2021/01/06 10:54:36;;;;;;;5.88;5.28;;;3.40;99.90;;;;;;4955647;28;20210;-71
2021/01/06 10:57:19;;;;;;;6.60;5.47;;;3.40;99.90;;;;;;4951573;28;20214;-70
2021/01/06 11:00:04;;;;;;;7.28;5.78;;;3.30;99.90;;;;;;4950886;28;20468;-71
2021/01/06 11:02:41;;;;;;;6.18;5.57;;;3.30;99.90;;;;;;4939700;28;21049;-71
2021/01/06 11:05:17;;;;;;;7.57;5.63;;;3.30;99.90;;;;;;4950798;28;20231;-70
2021/01/06 11:08:13;;;;;;;6.18;5.03;;;3.30;99.90;;;;;;4955140;28;20214;-71
2021/01/06 11:11:04;;;;;;;7.63;6.88;;;3.40;99.90;;;;;;4945105;28;20309;-70
2021/01/06 11:13:48;;;;;;;6.78;6.05;;;3.40;99.90;;;;;;4954346;28;20244;-70
2021/01/06 11:16:20;;;;;;;6.78;5.32;;;3.40;99.90;;;;;;4955145;28;20213;-70
2021/01/06 11:18:49;;;;;;;7.05;5.90;;;3.50;99.90;;;;;;4958672;28;20353;-73
2021/01/06 11:21:21;;;;;;;5.72;5.00;;;3.50;99.90;;;;;;4948445;28;22301;-71
2021/01/06 11:23:57;;;;;;;5.80;5.25;;;3.50;99.90;;;;;;4951875;28;20241;-71
2021/01/06 11:26:54;;;;;;;7.03;5.57;;;3.60;99.90;;;;;;4947629;28;20500;-71
2021/01/06 11:29:58;;;;;;;7.65;6.45;;;3.60;99.90;;;;;;4952986;28;20473;-71
2021/01/06 11:32:38;;;;;;;7.15;6.00;;;3.60;99.90;;;;;;4957052;28;20253;-70
2021/01/06 11:35:25;;;;;;;6.28;5.68;;;3.50;99.90;;;;;;4958772;28;20214;-70
2021/01/06 11:37:53;;;;;;;8.93;6.72;;;3.50;63.50;;;;;;4948207;28;20354;-70
2021/01/06 11:40:48;;;;;;;6.57;5.88;;;3.50;99.90;;;;;;4953839;28;20480;-71
2021/01/06 11:43:42;;;;;;;6.47;5.65;;;3.40;99.90;;;;;;4958527;28;20347;-71
2021/01/06 11:46:34;;;;;;;7.55;6.72;;;3.40;99.90;;;;;;4955187;28;20227;-71
2021/01/06 11:49:21;;;;;;;7.05;5.93;;;3.40;99.90;;;;;;4953139;28;20213;-73
2021/01/06 11:52:21;;;;;;;8.55;6.78;;;3.50;99.90;;;;;;4924626;28;20338;-73
2021/01/06 11:54:53;;;;;;;7.20;6.40;;;3.50;99.90;;;;;;4968266;28;20204;-71
2021/01/06 11:57:31;;;;;;;7.57;5.97;;;3.50;99.90;;;;;;4955566;28;20292;-71
2021/01/06 12:00:17;;;;;;;7.28;5.32;;;3.50;99.90;;;;;;4943883;28;20228;-71
2021/01/06 12:02:59;;;;;;;5.53;4.90;;;3.60;99.90;;;;;;4962962;28;20232;-72
2021/01/06 12:05:31;;;;;;;5.35;4.82;;;3.60;99.90;;;;;;4950457;28;20231;-71
2021/01/06 12:08:20;;;;;;;6.72;4.95;;;3.50;99.90;;;;;;4974906;28;20222;-74
2021/01/06 12:10:56;;;;;;;8.32;6.93;;;3.60;99.90;;;;;;4955788;28;20209;-72
2021/01/06 12:13:40;;;;;;;7.53;5.95;;;3.50;99.90;;;;;;4955438;28;20288;-71
2021/01/06 12:16:11;;;;;;;7.22;5.70;;;3.50;99.90;;;;;;4955866;28;20225;-72
2021/01/06 12:19:17;;;;;;;7.35;5.57;;;3.50;99.90;;;;;;4957044;28;20304;-72
2021/01/06 12:22:13;;;;;;;6.25;5.35;;;3.50;99.90;;;;;;4960327;28;20204;-71
2021/01/06 12:24:59;;;;;;;6.07;5.47;;;3.50;99.90;;;;;;4954335;28;20241;-71
2021/01/06 12:27:44;;;;;;;7.63;6.78;;;3.50;99.90;;;;;;4957884;28;20218;-72
2021/01/06 12:30:48;;;;;;;10.18;5.93;;;3.60;99.90;;;;;;4952765;28;20225;-71
2021/01/06 12:33:34;;;;;;;7.68;6.57;;;3.60;99.90;;;;;;4916813;28;20320;-69
2021/01/06 12:36:27;;;;;;;7.80;7.00;;;3.60;99.90;;;;;;4943794;28;20470;-71
2021/01/06 12:39:15;;;;;;;7.68;6.88;;;3.60;99.90;;;;;;4949103;28;20231;-72
2021/01/06 12:41:54;;;;;;;7.65;6.25;;;3.60;99.90;;;;;;4940562;28;20215;-70
2021/01/06 12:44:25;;;;;;;9.50;8.30;;;3.60;99.90;;;;;;4937110;28;20520;-71
2021/01/06 12:46:58;;;;;;;9.18;6.93;;;3.50;99.90;;;;;;4942724;28;20211;-68
2021/01/06 12:49:52;;;;;;;7.50;6.20;;;3.60;99.90;;;;;;4950003;28;20764;-70
2021/01/06 12:52:30;;;;;;;7.13;5.90;;;3.60;99.90;;;;;;4957340;28;20229;-71
2021/01/06 12:55:15;;;;;;;7.15;5.85;;;3.60;99.90;;;;;;4955633;28;20199;-72
2021/01/06 12:57:47;;;;;;;8.95;6.20;;;3.70;99.90;;;;;;4967194;28;20238;-72
2021/01/06 13:00:36;;;;;;;7.45;6.65;;;3.70;99.90;;;;;;4963105;28;20278;-73
2021/01/06 13:03:29;;;;;;;6.85;6.15;;;3.70;99.90;;;;;;4962677;28;20360;-70
2021/01/06 13:06:03;;;;;;;6.28;5.28;;;3.70;99.90;;;;;;4961298;28;20310;-72
2021/01/06 13:08:37;;;;;;;5.95;5.18;;;3.70;99.90;;;;;;4961855;28;20219;-71
2021/01/06 13:11:15;;;;;;;6.53;5.80;;;3.60;99.90;;;;;;4953282;28;20627;-71
2021/01/06 13:13:45;;;;;;;7.88;6.03;;;3.50;99.90;;;;;;4961500;28;20239;-71
2021/01/06 13:16:24;;;;;;;7.68;6.15;;;3.50;99.90;;;;;;4953978;28;20311;-71
2021/01/06 13:19:08;;;;;;;6.45;5.50;;;3.50;99.90;;;;;;4951170;29;20220;-72
2021/01/06 13:21:37;;;;;;;8.27;6.20;;;3.60;99.90;;;;;;4949683;28;20214;-72
2021/01/06 13:24:10;;;;;;;5.78;4.72;;;3.60;99.90;;;;;;4956206;28;20311;-70
2021/01/06 13:26:42;;;;;;;5.50;5.00;;;3.60;99.90;;;;;;4954200;28;20291;-70
2021/01/06 13:29:30;;;;;;;7.65;5.80;;;3.70;99.90;;;;;;4961732;28;20223;-72
2021/01/06 13:32:17;;;;;;;6.82;5.43;;;3.70;99.90;;;;;;4954135;28;20266;-70
2021/01/06 13:34:51;;;;;;;5.82;5.22;;;3.60;99.90;;;;;;4950513;28;20203;-72
2021/01/06 13:37:34;;;;;;;5.38;4.88;;;3.60;99.90;;;;;;4957590;28;20372;-71
2021/01/06 13:40:14;;;;;;;6.13;5.32;;;3.70;99.90;;;;;;4952416;28;20716;-73